| time (UTC) | temp F | wind direction | speed knots | gust knots | rain 1hr in | rain 24hr in | rain mn in | humidity % | barometer mb |
| 20260504120144 | 49 | 82 | 0.0 | 1.7 | 0.00 | 0.00 | 0.00 | 71 | 977.2 |
| 20260504110612 | 48 | 118 | 0.0 | 0.0 | 0.00 | 0.00 | 0.00 | 79 | 977.5 |
| 20260504110108 | 48 | 118 | 0.0 | 0.0 | 0.00 | 0.00 | 0.00 | 79 | 977.5 |
| 20260504100533 | 47 | 111 | 0.0 | 0.0 | 0.00 | 0.00 | 0.00 | 82 | 977.6 |
| 20260504081927 | 49 | 122 | 0.0 | 0.0 | 0.00 | 0.00 | 0.00 | 73 | 978.3 |
| 20260504081424 | 49 | 126 | 0.0 | 0.0 | 0.00 | 0.00 | 0.00 | 71 | 978.2 |
| 20260504080919 | 49 | 126 | 0.0 | 1.7 | 0.00 | 0.00 | 0.00 | 70 | 978.4 |
| 20260504080416 | 50 | 171 | 0.0 | 0.9 | 0.00 | 0.00 | 0.00 | 69 | 978.3 |
| 20260504070344 | 51 | 153 | 0.0 | 2.6 | 0.00 | 0.00 | 0.00 | 57 | 978.4 |
| 20260504050732 | 46 | 197 | 0.0 | 0.0 | 0.00 | 0.00 | 0.00 | 81 | 978.9 |
| 20260504050229 | 46 | 197 | 0.0 | 0.0 | 0.00 | 0.00 | 0.00 | 81 | 978.8 |
| 20260504045726 | 46 | 197 | 0.0 | 0.0 | 0.00 | 0.00 | 0.00 | 79 | 978.7 |
| 20260504045221 | 46 | 195 | 0.0 | 0.0 | 0.00 | 0.00 | 0.00 | 80 | 978.7 |
| 20260504044719 | 46 | 193 | 0.0 | 0.0 | 0.00 | 0.00 | 0.00 | 83 | 978.7 |
| 20260504044216 | 46 | 193 | 0.0 | 0.0 | 0.00 | 0.00 | 0.00 | 80 | 978.7 |
| 20260504043713 | 46 | 193 | 0.0 | 0.0 | 0.00 | 0.00 | 0.00 | 80 | 978.9 |
| 20260504043210 | 46 | 193 | 0.0 | 0.0 | 0.00 | 0.00 | 0.00 | 80 | 978.9 |
| 20260504042708 | 46 | 193 | 0.0 | 0.0 | 0.00 | 0.00 | 0.00 | 79 | 978.9 |
| 20260504042203 | 46 | 189 | 0.0 | 0.0 | 0.00 | 0.00 | 0.00 | 79 | 978.8 |
| 20260504041659 | 46 | 182 | 0.0 | 0.0 | 0.00 | 0.00 | 0.00 | 78 | 978.9 |
| 20260504041155 | 47 | 177 | 0.0 | 0.0 | 0.00 | 0.00 | 0.00 | 78 | 978.7 |
| 20260504040653 | 47 | 141 | 0.0 | 0.0 | 0.00 | 0.00 | 0.00 | 77 | 978.8 |
| 20260504040150 | 47 | 113 | 0.0 | 0.9 | 0.00 | 0.00 | 0.00 | 76 | 978.7 |
| 20260504035646 | 48 | 193 | 0.0 | 0.0 | 0.00 | 0.00 | 0.00 | 76 | 978.8 |
| 20260504035143 | 48 | 193 | 0.0 | 0.0 | 0.00 | 0.00 | 0.00 | 72 | 979.0 |
| 20260504034641 | 48 | 193 | 0.0 | 0.0 | 0.00 | 0.00 | 0.00 | 77 | 978.9 |
| 20260504034138 | 48 | 193 | 0.0 | 0.0 | 0.00 | 0.00 | 0.00 | 76 | 979.0 |
| 20260504033635 | 48 | 193 | 0.0 | 0.0 | 0.00 | 0.00 | 0.00 | 77 | 978.9 |
| 20260504033133 | 48 | 193 | 0.0 | 0.0 | 0.00 | 0.00 | 0.00 | 76 | 978.9 |
| 20260504032629 | 48 | 194 | 0.0 | 0.0 | 0.00 | 0.00 | 0.00 | 76 | 978.8 |
| 20260504032126 | 48 | 191 | 0.0 | 0.0 | 0.00 | 0.00 | 0.00 | 75 | 978.8 |
| 20260504031623 | 48 | 190 | 0.0 | 0.0 | 0.00 | 0.00 | 0.00 | 76 | 978.7 |
| 20260504031119 | 48 | 190 | 0.0 | 0.0 | 0.00 | 0.00 | 0.00 | 75 | 978.9 |
| 20260504030616 | 48 | 190 | 0.0 | 0.0 | 0.00 | 0.00 | 0.00 | 76 | 979.1 |
| 20260504030113 | 48 | 190 | 0.0 | 0.0 | 0.00 | 0.00 | 0.00 | 74 | 979.0 |
| 20260504025610 | 48 | 198 | 0.9 | 1.7 | 0.00 | 0.00 | 0.00 | 75 | 978.9 |
| 20260504025107 | 48 | 159 | 0.0 | 0.0 | 0.00 | 0.00 | 0.00 | 76 | 978.8 |
| 20260504024604 | 47 | 159 | 0.0 | 0.0 | 0.00 | 0.00 | 0.00 | 75 | 979.1 |
| 20260504024101 | 48 | 194 | 0.0 | 0.0 | 0.00 | 0.00 | 0.00 | 75 | 979.1 |
| 20260504023557 | 48 | 196 | 0.0 | 0.0 | 0.00 | 0.00 | 0.00 | 74 | 979.1 |
| 20260504023053 | 48 | 187 | 0.0 | 0.0 | 0.00 | 0.00 | 0.00 | 75 | 978.8 |
| 20260504022549 | 48 | 187 | 0.0 | 0.0 | 0.00 | 0.00 | 0.00 | 74 | 978.9 |
| 20260504022046 | 47 | 187 | 0.0 | 0.0 | 0.00 | 0.00 | 0.00 | 73 | 979.1 |
| 20260504021543 | 47 | 187 | 0.0 | 0.0 | 0.00 | 0.00 | 0.00 | 75 | 978.8 |
| 20260504021040 | 48 | 187 | 0.0 | 0.0 | 0.00 | 0.00 | 0.00 | 74 | 979.0 |
| 20260504020537 | 48 | 187 | 0.0 | 0.0 | 0.00 | 0.00 | 0.00 | 72 | 979.0 |
| 20260504020034 | 48 | 187 | 0.0 | 0.0 | 0.00 | 0.00 | 0.00 | 72 | 979.0 |
| 20260504015530 | 48 | 187 | 0.0 | 0.0 | 0.00 | 0.00 | 0.00 | 71 | 979.1 |
| 20260504015026 | 48 | 187 | 0.9 | 0.9 | 0.00 | 0.00 | 0.00 | 71 | 979.1 |
| 20260504014522 | 48 | 182 | 0.0 | 0.0 | 0.00 | 0.00 | 0.00 | 73 | 979.1 |
| 20260504014019 | 48 | 182 | 0.0 | 0.0 | 0.00 | 0.00 | 0.00 | 73 | 979.0 |
| 20260504013517 | 49 | 182 | 0.0 | 0.0 | 0.00 | 0.00 | 0.00 | 72 | 978.9 |
| 20260504013014 | 49 | 182 | 0.0 | 0.0 | 0.00 | 0.00 | 0.00 | 71 | 979.0 |
| 20260504012511 | 49 | 182 | 0.0 | 0.0 | 0.00 | 0.00 | 0.00 | 70 | 978.8 |
| 20260504012009 | 49 | 183 | 0.0 | 0.0 | 0.00 | 0.00 | 0.00 | 69 | 979.0 |
| 20260504011505 | 49 | 183 | 0.0 | 0.0 | 0.00 | 0.00 | 0.00 | 71 | 979.1 |
| 20260504011001 | 49 | 183 | 0.0 | 0.0 | 0.00 | 0.00 | 0.00 | 70 | 979.1 |
| 20260504010457 | 49 | 183 | 0.0 | 0.0 | 0.00 | 0.00 | 0.00 | 69 | 979.0 |
| 20260504005953 | 50 | 201 | 0.0 | 0.9 | 0.00 | 0.00 | 0.00 | 66 | 979.1 |
| 20260504005450 | 49 | 163 | 0.0 | 0.0 | 0.00 | 0.00 | 0.00 | 66 | 979.0 |
| 20260504004948 | 49 | 163 | 0.0 | 0.0 | 0.00 | 0.00 | 0.00 | 67 | 978.9 |
| 20260504004445 | 49 | 162 | 0.0 | 0.0 | 0.00 | 0.00 | 0.00 | 65 | 978.8 |
| 20260504003942 | 50 | 162 | 0.0 | 0.0 | 0.00 | 0.00 | 0.00 | 64 | 978.6 |
| 20260504003438 | 50 | 162 | 0.0 | 0.0 | 0.00 | 0.00 | 0.00 | 65 | 978.6 |
| 20260504002935 | 51 | 155 | 0.0 | 0.0 | 0.00 | 0.00 | 0.00 | 59 | 978.7 |
| 20260504002432 | 51 | 155 | 0.0 | 0.0 | 0.00 | 0.00 | 0.00 | 61 | 978.5 |
| 20260504001930 | 51 | 155 | 0.0 | 0.0 | 0.00 | 0.00 | 0.00 | 59 | 978.6 |
| 20260504001427 | 52 | 154 | 0.0 | 0.0 | 0.00 | 0.00 | 0.00 | 57 | 978.7 |
| 20260504000923 | 52 | 154 | 0.0 | 0.0 | 0.00 | 0.00 | 0.00 | 56 | 978.8 |
| 20260504000421 | 53 | 153 | 0.0 | 0.0 | 0.00 | 0.00 | 0.00 | 55 | 978.7 |
| 20260503235918 | 53 | 151 | 0.0 | 0.0 | 0.00 | 0.00 | 0.00 | 51 | 978.7 |
| 20260503235416 | 53 | 155 | 0.0 | 0.0 | 0.00 | 0.00 | 0.00 | 50 | 978.7 |
| 20260503234913 | 54 | 147 | 0.0 | 0.0 | 0.00 | 0.00 | 0.00 | 49 | 978.7 |
| 20260503234410 | 55 | 127 | 0.0 | 0.0 | 0.00 | 0.00 | 0.00 | 44 | 978.7 |
| 20260503233909 | 56 | 166 | 0.0 | 0.0 | 0.00 | 0.00 | 0.00 | 44 | 978.8 |
| 20260503233405 | 56 | 167 | 0.0 | 1.7 | 0.00 | 0.00 | 0.00 | 39 | 978.6 |
| 20260503232901 | 57 | 211 | 1.7 | 2.6 | 0.00 | 0.00 | 0.00 | 37 | 978.9 |
| 20260503232358 | 56 | 315 | 2.6 | 2.6 | 0.00 | 0.00 | 0.00 | 35 | 978.9 |
| 20260503231856 | 56 | 248 | 0.0 | 0.9 | 0.00 | 0.00 | 0.00 | 42 | 978.8 |
| 20260503231353 | 57 | 212 | 0.9 | 1.7 | 0.00 | 0.00 | 0.00 | 41 | 979.0 |
| 20260503230849 | 57 | 5 | 0.9 | 1.7 | 0.00 | 0.00 | 0.00 | 36 | 978.7 |
| 20260503230346 | 58 | 233 | 0.0 | 1.7 | 0.00 | 0.00 | 0.00 | 34 | 978.9 |
| 20260503225844 | 58 | 287 | 0.0 | 3.5 | 0.00 | 0.00 | 0.00 | 34 | 978.9 |
| 20260503225339 | 58 | 126 | 0.0 | 5.2 | 0.00 | 0.00 | 0.00 | 33 | 979.0 |
| 20260503224836 | 59 | 154 | 4.3 | 6.1 | 0.00 | 0.00 | 0.00 | 32 | 979.2 |
| 20260503224333 | 60 | 317 | 0.0 | 3.5 | 0.00 | 0.00 | 0.00 | 31 | 978.9 |
| 20260503223831 | 59 | 106 | 1.7 | 3.5 | 0.00 | 0.00 | 0.00 | 32 | 979.0 |
| 20260503223328 | 60 | 111 | 1.7 | 5.2 | 0.00 | 0.00 | 0.00 | 32 | 979.0 |
| 20260503222824 | 60 | 243 | 3.5 | 6.1 | 0.00 | 0.00 | 0.00 | 32 | 979.0 |
| 20260503222323 | 61 | 158 | 0.0 | 3.5 | 0.00 | 0.00 | 0.00 | 34 | 979.0 |
| 20260503221820 | 61 | 18 | 0.9 | 5.2 | 0.00 | 0.00 | 0.00 | 30 | 979.0 |
| 20260503221319 | 62 | 305 | 0.0 | 1.7 | 0.00 | 0.00 | 0.00 | 31 | 978.8 |
| 20260503220814 | 61 | 339 | 0.0 | 3.5 | 0.00 | 0.00 | 0.00 | 35 | 979.1 |
| 20260503220311 | 60 | 41 | 0.0 | 2.6 | 0.00 | 0.00 | 0.00 | 33 | 978.8 |
| 20260503215808 | 61 | 221 | 2.6 | 5.2 | 0.00 | 0.00 | 0.00 | 33 | 979.0 |
| 20260503215305 | 60 | 192 | 5.2 | 7.8 | 0.00 | 0.00 | 0.00 | 34 | 979.0 |
| 20260503214803 | 60 | 46 | 2.6 | 6.1 | 0.00 | 0.00 | 0.00 | 30 | 979.0 |
| 20260503214300 | 62 | 75 | 0.9 | 2.6 | 0.00 | 0.00 | 0.00 | 32 | 978.9 |
| 20260503213757 | 62 | 314 | 0.9 | 2.6 | 0.00 | 0.00 | 0.00 | 30 | 979.0 |
| 20260503213255 | 61 | 84 | 3.5 | 5.2 | 0.00 | 0.00 | 0.00 | 31 | 978.9 |
| 20260503212751 | 61 | 195 | 0.0 | 0.9 | 0.00 | 0.00 | 0.00 | 34 | 979.0 |
| 20260503212249 | 60 | 241 | 0.0 | 5.2 | 0.00 | 0.00 | 0.00 | 35 | 978.7 |
| 20260503211746 | 61 | 199 | 2.6 | 5.2 | 0.00 | 0.00 | 0.00 | 32 | 979.0 |
| 20260503211243 | 60 | 52 | 0.0 | 1.7 | 0.00 | 0.00 | 0.00 | 31 | 979.0 |
| 20260503210738 | 60 | 348 | 1.7 | 5.2 | 0.00 | 0.00 | 0.00 | 36 | 979.1 |
| 20260503210236 | 59 | 235 | 0.0 | 1.7 | 0.00 | 0.00 | 0.00 | 32 | 979.1 |
| 20260503205731 | 60 | 271 | 2.6 | 5.2 | 0.00 | 0.00 | 0.00 | 30 | 979.2 |
| 20260503205227 | 60 | 318 | 1.7 | 6.1 | 0.00 | 0.00 | 0.00 | 32 | 979.2 |
| 20260503204724 | 59 | 300 | 0.0 | 7.0 | 0.00 | 0.00 | 0.00 | 33 | 979.3 |
| 20260503204222 | 60 | 299 | 1.7 | 5.2 | 0.00 | 0.00 | 0.00 | 32 | 979.3 |
| 20260503203719 | 59 | 189 | 0.0 | 5.2 | 0.00 | 0.00 | 0.00 | 33 | 979.6 |
| 20260503203216 | 60 | 285 | 2.6 | 7.0 | 0.00 | 0.00 | 0.00 | 35 | 979.5 |
| 20260503202714 | 60 | 173 | 3.5 | 6.1 | 0.00 | 0.00 | 0.00 | 34 | 979.6 |
| 20260503202211 | 61 | 280 | 2.6 | 7.0 | 0.00 | 0.00 | 0.00 | 31 | 979.7 |
| 20260503201709 | 59 | 308 | 1.7 | 5.2 | 0.00 | 0.00 | 0.00 | 33 | 979.6 |
| 20260503201206 | 60 | 82 | 2.6 | 5.2 | 0.00 | 0.00 | 0.00 | 32 | 979.7 |
| 20260503200702 | 59 | 328 | 3.5 | 7.8 | 0.00 | 0.00 | 0.00 | 33 | 979.9 |
| 20260503200159 | 59 | 348 | 1.7 | 5.2 | 0.00 | 0.00 | 0.00 | 32 | 980.1 |
| 20260503195656 | 59 | 320 | 3.5 | 6.1 | 0.00 | 0.00 | 0.00 | 33 | 980.1 |
| 20260503195153 | 59 | 39 | 3.5 | 5.2 | 0.00 | 0.00 | 0.00 | 31 | 980.2 |
| 20260503194650 | 59 | 279 | 0.9 | 6.1 | 0.00 | 0.00 | 0.00 | 32 | 980.3 |
| 20260503194145 | 58 | 287 | 3.5 | 9.6 | 0.00 | 0.00 | 0.00 | 33 | 980.5 |
| 20260503193642 | 59 | 133 | 2.6 | 5.2 | 0.00 | 0.00 | 0.00 | 31 | 980.7 |
| 20260503193137 | 59 | 163 | 0.9 | 5.2 | 0.00 | 0.00 | 0.00 | 32 | 980.6 |
| 20260503192633 | 59 | 19 | 4.3 | 7.8 | 0.00 | 0.00 | 0.00 | 32 | 980.6 |
| 20260503192129 | 57 | 90 | 1.7 | 2.6 | 0.00 | 0.00 | 0.00 | 32 | 980.5 |
| 20260503191626 | 58 | 165 | 2.6 | 7.8 | 0.00 | 0.00 | 0.00 | 34 | 980.8 |
| 20260503191123 | 58 | 129 | 3.5 | 6.1 | 0.00 | 0.00 | 0.00 | 35 | 980.8 |
| 20260503190620 | 58 | 278 | 2.6 | 6.1 | 0.00 | 0.00 | 0.00 | 32 | 980.7 |
| 20260503190117 | 59 | 209 | 0.9 | 1.7 | 0.00 | 0.00 | 0.00 | 35 | 980.8 |
| 20260503185614 | 58 | 205 | 4.3 | 6.1 | 0.00 | 0.00 | 0.00 | 34 | 981.0 |
| 20260503185114 | 57 | 121 | 0.9 | 6.1 | 0.00 | 0.00 | 0.00 | 36 | 980.9 |
| 20260503184609 | 56 | 97 | 2.6 | 6.1 | 0.00 | 0.00 | 0.00 | 39 | 981.1 |
| 20260503184106 | 56 | 279 | 3.5 | 5.2 | 0.00 | 0.00 | 0.00 | 35 | 981.1 |
| 20260503183603 | 55 | 152 | 5.2 | 7.0 | 0.00 | 0.00 | 0.00 | 35 | 981.1 |
| 20260503183100 | 57 | 198 | 1.7 | 5.2 | 0.00 | 0.00 | 0.00 | 37 | 981.2 |
| 20260503182558 | 56 | 272 | 0.9 | 5.2 | 0.00 | 0.00 | 0.00 | 32 | 981.1 |
| 20260503182056 | 56 | 28 | 3.5 | 5.2 | 0.00 | 0.00 | 0.00 | 37 | 981.3 |
| 20260503181553 | 56 | 260 | 1.7 | 2.6 | 0.00 | 0.00 | 0.00 | 34 | 981.3 |
| 20260503181049 | 57 | 224 | 4.3 | 8.7 | 0.00 | 0.00 | 0.00 | 35 | 981.4 |
| 20260503180546 | 56 | 50 | 1.7 | 5.2 | 0.00 | 0.00 | 0.00 | 35 | 981.6 |
| 20260503180044 | 57 | 302 | 4.3 | 7.0 | 0.00 | 0.00 | 0.00 | 42 | 981.2 |
| 20260503175541 | 56 | 31 | 2.6 | 5.2 | 0.00 | 0.00 | 0.00 | 40 | 981.5 |
| 20260503175038 | 55 | 88 | 2.6 | 3.5 | 0.00 | 0.00 | 0.00 | 39 | 981.8 |
| 20260503174535 | 56 | 46 | 0.0 | 6.1 | 0.00 | 0.00 | 0.00 | 38 | 981.8 |
| 20260503174031 | 56 | 65 | 2.6 | 7.0 | 0.00 | 0.00 | 0.00 | 38 | 981.8 |
| 20260503173527 | 54 | 311 | 1.7 | 5.2 | 0.00 | 0.00 | 0.00 | 38 | 981.7 |
| 20260503173023 | 55 | 35 | 4.3 | 7.0 | 0.00 | 0.00 | 0.00 | 35 | 981.7 |
| 20260503172521 | 56 | 322 | 0.0 | 3.5 | 0.00 | 0.00 | 0.00 | 36 | 981.8 |
| 20260503172018 | 54 | 272 | 2.6 | 7.0 | 0.00 | 0.00 | 0.00 | 37 | 981.8 |
| 20260503171514 | 55 | 248 | 3.5 | 5.2 | 0.00 | 0.00 | 0.00 | 38 | 982.0 |
| 20260503171012 | 53 | 348 | 0.0 | 0.0 | 0.00 | 0.00 | 0.00 | 37 | 982.1 |
| 20260503170508 | 54 | 23 | 1.7 | 6.1 | 0.00 | 0.00 | 0.00 | 40 | 982.0 |
| 20260503150900 | 49 | 204 | 3.5 | 5.2 | 0.00 | 0.00 | 0.00 | 51 | 983.3 |
| 20260503150356 | 49 | 160 | 0.9 | 2.6 | 0.00 | 0.00 | 0.00 | 49 | 983.2 |
| 20260503131250 | 43 | 290 | 1.7 | 3.5 | 0.00 | 0.00 | 0.00 | 74 | 983.4 |
| 20260503130748 | 43 | 245 | 1.7 | 7.0 | 0.00 | 0.00 | 0.00 | 74 | 983.3 |
| 20260503130245 | 43 | 254 | 1.7 | 2.6 | 0.00 | 0.00 | 0.00 | 75 | 983.3 |